sensor_id;sensor_type;location;lat;lon;timestamp;temperature;humidity
18101;DHT22;9177;49.156;8.142;2022-07-23T00:01:53;26.30;98.70
18101;DHT22;9177;49.156;8.142;2022-07-23T00:04:20;26.20;98.60
18101;DHT22;9177;49.156;8.142;2022-07-23T00:06:46;26.30;98.70
18101;DHT22;9177;49.156;8.142;2022-07-23T00:09:13;26.30;99.00
18101;DHT22;9177;49.156;8.142;2022-07-23T00:11:40;26.30;98.70
18101;DHT22;9177;49.156;8.142;2022-07-23T00:14:07;26.30;98.70
18101;DHT22;9177;49.156;8.142;2022-07-23T00:16:35;26.20;98.60
18101;DHT22;9177;49.156;8.142;2022-07-23T00:19:02;26.30;98.70
18101;DHT22;9177;49.156;8.142;2022-07-23T00:21:29;26.20;98.60
18101;DHT22;9177;49.156;8.142;2022-07-23T00:23:56;26.30;98.70
18101;DHT22;9177;49.156;8.142;2022-07-23T00:26:23;26.30;98.70
18101;DHT22;9177;49.156;8.142;2022-07-23T00:28:50;26.30;98.70
18101;DHT22;9177;49.156;8.142;2022-07-23T00:31:17;26.30;98.70
18101;DHT22;9177;49.156;8.142;2022-07-23T00:33:45;26.20;98.60
18101;DHT22;9177;49.156;8.142;2022-07-23T00:36:13;26.20;98.70
18101;DHT22;9177;49.156;8.142;2022-07-23T00:38:40;26.30;98.70
18101;DHT22;9177;49.156;8.142;2022-07-23T00:41:07;26.20;98.70
18101;DHT22;9177;49.156;8.142;2022-07-23T00:43:34;26.20;98.70
18101;DHT22;9177;49.156;8.142;2022-07-23T00:46:00;26.20;98.60
18101;DHT22;9177;49.156;8.142;2022-07-23T00:48:28;26.20;98.60
18101;DHT22;9177;49.156;8.142;2022-07-23T00:50:56;26.20;98.60
18101;DHT22;9177;49.156;8.142;2022-07-23T00:53:23;26.20;98.60
18101;DHT22;9177;49.156;8.142;2022-07-23T00:55:50;26.20;98.60
18101;DHT22;9177;49.156;8.142;2022-07-23T00:58:17;26.20;98.60
18101;DHT22;9177;49.156;8.142;2022-07-23T01:00:45;26.20;98.60
18101;DHT22;9177;49.156;8.142;2022-07-23T01:03:12;26.20;98.60
18101;DHT22;9177;49.156;8.142;2022-07-23T01:05:39;26.20;98.60
18101;DHT22;9177;49.156;8.142;2022-07-23T01:08:07;26.20;98.70
18101;DHT22;9177;49.156;8.142;2022-07-23T01:10:34;26.20;98.70
18101;DHT22;9177;49.156;8.142;2022-07-23T01:13:04;26.20;98.70
18101;DHT22;9177;49.156;8.142;2022-07-23T01:15:32;26.20;98.70
18101;DHT22;9177;49.156;8.142;2022-07-23T01:17:59;26.20;98.70
18101;DHT22;9177;49.156;8.142;2022-07-23T01:20:26;26.20;98.70
18101;DHT22;9177;49.156;8.142;2022-07-23T01:22:54;26.20;98.70
18101;DHT22;9177;49.156;8.142;2022-07-23T01:25:22;26.20;98.70
18101;DHT22;9177;49.156;8.142;2022-07-23T01:27:50;26.20;98.60
18101;DHT22;9177;49.156;8.142;2022-07-23T01:30:17;26.20;98.70
18101;DHT22;9177;49.156;8.142;2022-07-23T01:32:45;26.20;98.70
18101;DHT22;9177;49.156;8.142;2022-07-23T01:35:12;26.20;98.70
18101;DHT22;9177;49.156;8.142;2022-07-23T01:37:39;26.20;98.70
18101;DHT22;9177;49.156;8.142;2022-07-23T01:40:07;26.20;98.70
18101;DHT22;9177;49.156;8.142;2022-07-23T01:42:35;26.20;98.70
18101;DHT22;9177;49.156;8.142;2022-07-23T01:45:03;26.20;98.70
18101;DHT22;9177;49.156;8.142;2022-07-23T01:47:31;26.20;98.70
18101;DHT22;9177;49.156;8.142;2022-07-23T01:49:57;26.20;98.70
18101;DHT22;9177;49.156;8.142;2022-07-23T01:52:24;26.20;98.70
18101;DHT22;9177;49.156;8.142;2022-07-23T01:54:51;26.20;98.70
18101;DHT22;9177;49.156;8.142;2022-07-23T01:57:20;26.20;98.70
18101;DHT22;9177;49.156;8.142;2022-07-23T01:59:46;26.20;98.70
18101;DHT22;9177;49.156;8.142;2022-07-23T02:02:13;26.20;98.70
18101;DHT22;9177;49.156;8.142;2022-07-23T02:04:40;26.20;98.70
18101;DHT22;9177;49.156;8.142;2022-07-23T02:07:07;26.20;98.70
18101;DHT22;9177;49.156;8.142;2022-07-23T02:09:34;26.20;98.70
18101;DHT22;9177;49.156;8.142;2022-07-23T02:12:01;26.20;98.80
18101;DHT22;9177;49.156;8.142;2022-07-23T02:14:32;26.20;98.70
18101;DHT22;9177;49.156;8.142;2022-07-23T02:16:59;26.20;98.80
18101;DHT22;9177;49.156;8.142;2022-07-23T02:19:29;26.10;98.70
18101;DHT22;9177;49.156;8.142;2022-07-23T02:21:56;26.20;98.80
18101;DHT22;9177;49.156;8.142;2022-07-23T02:24:23;26.20;98.80
18101;DHT22;9177;49.156;8.142;2022-07-23T02:26:50;26.10;98.80
18101;DHT22;9177;49.156;8.142;2022-07-23T02:29:16;26.20;98.80
18101;DHT22;9177;49.156;8.142;2022-07-23T02:31:44;26.10;98.70
18101;DHT22;9177;49.156;8.142;2022-07-23T02:34:12;26.10;98.70
18101;DHT22;9177;49.156;8.142;2022-07-23T02:36:39;26.20;98.80
18101;DHT22;9177;49.156;8.142;2022-07-23T02:39:06;26.20;98.80
18101;DHT22;9177;49.156;8.142;2022-07-23T02:41:33;26.10;98.70
18101;DHT22;9177;49.156;8.142;2022-07-23T02:44:00;26.10;98.70
18101;DHT22;9177;49.156;8.142;2022-07-23T02:46:27;26.20;98.80
18101;DHT22;9177;49.156;8.142;2022-07-23T02:48:55;26.10;98.70
18101;DHT22;9177;49.156;8.142;2022-07-23T02:51:22;26.10;98.70
18101;DHT22;9177;49.156;8.142;2022-07-23T02:53:49;26.20;99.10
18101;DHT22;9177;49.156;8.142;2022-07-23T02:56:15;26.10;98.70
18101;DHT22;9177;49.156;8.142;2022-07-23T02:58:42;26.20;98.70
18101;DHT22;9177;49.156;8.142;2022-07-23T03:01:09;26.10;98.70
18101;DHT22;9177;49.156;8.142;2022-07-23T03:03:36;26.20;98.70
18101;DHT22;9177;49.156;8.142;2022-07-23T03:06:05;26.10;98.70
18101;DHT22;9177;49.156;8.142;2022-07-23T03:08:32;26.20;98.80
18101;DHT22;9177;49.156;8.142;2022-07-23T03:10:59;26.10;98.70
18101;DHT22;9177;49.156;8.142;2022-07-23T03:13:26;26.10;98.70
18101;DHT22;9177;49.156;8.142;2022-07-23T03:15:53;26.10;98.70
18101;DHT22;9177;49.156;8.142;2022-07-23T03:18:20;26.10;98.70
18101;DHT22;9177;49.156;8.142;2022-07-23T03:20:46;26.10;98.70
18101;DHT22;9177;49.156;8.142;2022-07-23T03:23:16;26.10;98.80
18101;DHT22;9177;49.156;8.142;2022-07-23T03:25:42;26.10;98.80
18101;DHT22;9177;49.156;8.142;2022-07-23T03:28:09;26.10;98.80
18101;DHT22;9177;49.156;8.142;2022-07-23T03:30:36;26.10;98.80
18101;DHT22;9177;49.156;8.142;2022-07-23T03:33:03;26.10;98.80
18101;DHT22;9177;49.156;8.142;2022-07-23T03:35:30;26.10;98.80
18101;DHT22;9177;49.156;8.142;2022-07-23T03:37:57;26.10;98.80
18101;DHT22;9177;49.156;8.142;2022-07-23T03:40:26;26.10;98.80
18101;DHT22;9177;49.156;8.142;2022-07-23T03:42:53;26.10;98.80
18101;DHT22;9177;49.156;8.142;2022-07-23T03:45:21;26.10;98.80
18101;DHT22;9177;49.156;8.142;2022-07-23T03:47:52;26.10;98.80
18101;DHT22;9177;49.156;8.142;2022-07-23T03:50:19;26.10;98.80
18101;DHT22;9177;49.156;8.142;2022-07-23T03:52:47;26.10;98.80
18101;DHT22;9177;49.156;8.142;2022-07-23T03:55:14;26.10;98.80
18101;DHT22;9177;49.156;8.142;2022-07-23T03:57:42;26.10;98.80
18101;DHT22;9177;49.156;8.142;2022-07-23T04:00:11;26.10;98.80
18101;DHT22;9177;49.156;8.142;2022-07-23T04:02:39;26.10;98.80
18101;DHT22;9177;49.156;8.142;2022-07-23T04:05:07;26.10;98.80
18101;DHT22;9177;49.156;8.142;2022-07-23T04:07:34;26.10;98.80
18101;DHT22;9177;49.156;8.142;2022-07-23T04:10:01;26.10;98.80
18101;DHT22;9177;49.156;8.142;2022-07-23T04:12:28;26.10;98.80
18101;DHT22;9177;49.156;8.142;2022-07-23T04:14:56;26.10;98.90
18101;DHT22;9177;49.156;8.142;2022-07-23T04:17:23;26.10;98.90
18101;DHT22;9177;49.156;8.142;2022-07-23T04:19:55;26.10;98.90
18101;DHT22;9177;49.156;8.142;2022-07-23T04:22:22;26.10;98.90
18101;DHT22;9177;49.156;8.142;2022-07-23T04:24:49;26.10;98.90
18101;DHT22;9177;49.156;8.142;2022-07-23T04:27:16;26.10;98.90
18101;DHT22;9177;49.156;8.142;2022-07-23T04:29:43;26.10;99.00
18101;DHT22;9177;49.156;8.142;2022-07-23T04:32:11;26.10;99.00
18101;DHT22;9177;49.156;8.142;2022-07-23T04:34:38;26.10;99.00
18101;DHT22;9177;49.156;8.142;2022-07-23T04:37:05;26.10;99.00
18101;DHT22;9177;49.156;8.142;2022-07-23T04:39:31;26.10;99.10
18101;DHT22;9177;49.156;8.142;2022-07-23T04:41:59;26.10;99.10
18101;DHT22;9177;49.156;8.142;2022-07-23T04:44:25;26.00;99.10
18101;DHT22;9177;49.156;8.142;2022-07-23T04:46:52;26.10;99.20
18101;DHT22;9177;49.156;8.142;2022-07-23T04:49:21;26.00;99.20
18101;DHT22;9177;49.156;8.142;2022-07-23T04:51:48;26.10;99.20
18101;DHT22;9177;49.156;8.142;2022-07-23T04:54:15;26.10;99.20
18101;DHT22;9177;49.156;8.142;2022-07-23T04:56:44;26.00;99.20
18101;DHT22;9177;49.156;8.142;2022-07-23T04:59:11;26.10;99.20
18101;DHT22;9177;49.156;8.142;2022-07-23T05:01:37;26.10;99.20
18101;DHT22;9177;49.156;8.142;2022-07-23T05:04:06;26.00;99.20
18101;DHT22;9177;49.156;8.142;2022-07-23T05:06:34;26.00;99.20
18101;DHT22;9177;49.156;8.142;2022-07-23T05:09:01;26.00;99.30
18101;DHT22;9177;49.156;8.142;2022-07-23T05:11:28;26.00;99.60
18101;DHT22;9177;49.156;8.142;2022-07-23T05:13:54;26.10;99.40
18101;DHT22;9177;49.156;8.142;2022-07-23T05:16:21;26.00;99.30
18101;DHT22;9177;49.156;8.142;2022-07-23T05:18:48;26.10;99.40
18101;DHT22;9177;49.156;8.142;2022-07-23T05:21:15;26.00;99.40
18101;DHT22;9177;49.156;8.142;2022-07-23T05:23:43;26.10;99.40
18101;DHT22;9177;49.156;8.142;2022-07-23T05:26:10;26.00;99.40
18101;DHT22;9177;49.156;8.142;2022-07-23T05:28:37;26.10;99.70
18101;DHT22;9177;49.156;8.142;2022-07-23T05:31:04;26.10;99.40
18101;DHT22;9177;49.156;8.142;2022-07-23T05:33:31;26.00;99.40
18101;DHT22;9177;49.156;8.142;2022-07-23T05:36:00;26.10;99.40
18101;DHT22;9177;49.156;8.142;2022-07-23T05:38:28;26.00;99.30
18101;DHT22;9177;49.156;8.142;2022-07-23T05:40:57;26.00;99.30
18101;DHT22;9177;49.156;8.142;2022-07-23T05:43:24;26.10;99.80
18101;DHT22;9177;49.156;8.142;2022-07-23T05:45:50;26.10;99.40
18101;DHT22;9177;49.156;8.142;2022-07-23T05:48:17;26.10;99.40
18101;DHT22;9177;49.156;8.142;2022-07-23T05:50:44;26.10;99.80
18101;DHT22;9177;49.156;8.142;2022-07-23T05:53:11;26.10;99.50
18101;DHT22;9177;49.156;8.142;2022-07-23T05:55:38;26.10;99.50
18101;DHT22;9177;49.156;8.142;2022-07-23T05:58:06;26.00;99.40
18101;DHT22;9177;49.156;8.142;2022-07-23T06:00:34;26.10;99.50
18101;DHT22;9177;49.156;8.142;2022-07-23T06:03:01;26.00;99.50
18101;DHT22;9177;49.156;8.142;2022-07-23T06:05:28;26.00;99.50
18101;DHT22;9177;49.156;8.142;2022-07-23T06:07:55;26.00;99.50
18101;DHT22;9177;49.156;8.142;2022-07-23T06:10:22;26.00;99.50
18101;DHT22;9177;49.156;8.142;2022-07-23T06:12:51;26.00;99.60
18101;DHT22;9177;49.156;8.142;2022-07-23T06:15:19;26.00;99.90
18101;DHT22;9177;49.156;8.142;2022-07-23T06:17:46;26.00;99.60
18101;DHT22;9177;49.156;8.142;2022-07-23T06:20:13;26.00;99.60
18101;DHT22;9177;49.156;8.142;2022-07-23T06:22:40;26.00;99.60
18101;DHT22;9177;49.156;8.142;2022-07-23T06:25:07;26.00;99.60
18101;DHT22;9177;49.156;8.142;2022-07-23T06:27:34;26.00;99.60
18101;DHT22;9177;49.156;8.142;2022-07-23T06:30:01;26.10;99.70
18101;DHT22;9177;49.156;8.142;2022-07-23T06:32:30;26.00;99.70
18101;DHT22;9177;49.156;8.142;2022-07-23T06:34:57;26.00;99.70
18101;DHT22;9177;49.156;8.142;2022-07-23T06:37:24;26.00;99.70
18101;DHT22;9177;49.156;8.142;2022-07-23T06:39:54;26.00;99.70
18101;DHT22;9177;49.156;8.142;2022-07-23T06:42:21;26.00;99.70
18101;DHT22;9177;49.156;8.142;2022-07-23T06:44:48;26.00;99.70
18101;DHT22;9177;49.156;8.142;2022-07-23T06:47:15;26.10;99.70
18101;DHT22;9177;49.156;8.142;2022-07-23T06:49:43;26.10;99.60
18101;DHT22;9177;49.156;8.142;2022-07-23T06:52:10;26.10;99.60
18101;DHT22;9177;49.156;8.142;2022-07-23T06:54:37;26.10;99.60
18101;DHT22;9177;49.156;8.142;2022-07-23T06:57:04;26.10;99.60
18101;DHT22;9177;49.156;8.142;2022-07-23T06:59:30;26.10;99.60
18101;DHT22;9177;49.156;8.142;2022-07-23T07:01:58;26.10;99.60
18101;DHT22;9177;49.156;8.142;2022-07-23T07:04:25;26.10;99.60
18101;DHT22;9177;49.156;8.142;2022-07-23T07:06:56;26.10;99.60
18101;DHT22;9177;49.156;8.142;2022-07-23T07:09:23;26.10;99.60
18101;DHT22;9177;49.156;8.142;2022-07-23T07:11:49;26.10;99.60
18101;DHT22;9177;49.156;8.142;2022-07-23T07:14:16;26.10;99.60
18101;DHT22;9177;49.156;8.142;2022-07-23T07:16:43;26.10;99.60
18101;DHT22;9177;49.156;8.142;2022-07-23T07:19:10;26.10;99.60
18101;DHT22;9177;49.156;8.142;2022-07-23T07:21:37;26.10;99.60
18101;DHT22;9177;49.156;8.142;2022-07-23T07:24:06;26.10;99.60
18101;DHT22;9177;49.156;8.142;2022-07-23T07:26:33;26.10;99.60
18101;DHT22;9177;49.156;8.142;2022-07-23T07:29:00;26.10;99.60
18101;DHT22;9177;49.156;8.142;2022-07-23T07:31:27;26.10;99.60
18101;DHT22;9177;49.156;8.142;2022-07-23T07:33:54;26.10;99.60
18101;DHT22;9177;49.156;8.142;2022-07-23T07:36:22;26.10;99.60
18101;DHT22;9177;49.156;8.142;2022-07-23T07:38:49;26.10;99.60
18101;DHT22;9177;49.156;8.142;2022-07-23T07:41:17;26.20;99.50
18101;DHT22;9177;49.156;8.142;2022-07-23T07:43:48;26.20;99.50
18101;DHT22;9177;49.156;8.142;2022-07-23T07:46:15;26.20;99.50
18101;DHT22;9177;49.156;8.142;2022-07-23T07:48:42;26.20;99.50
18101;DHT22;9177;49.156;8.142;2022-07-23T07:51:09;26.20;99.50
18101;DHT22;9177;49.156;8.142;2022-07-23T07:53:35;26.20;99.50
18101;DHT22;9177;49.156;8.142;2022-07-23T07:56:05;26.20;99.50
18101;DHT22;9177;49.156;8.142;2022-07-23T07:58:33;26.20;99.60
18101;DHT22;9177;49.156;8.142;2022-07-23T08:01:01;26.20;99.60
18101;DHT22;9177;49.156;8.142;2022-07-23T08:03:28;26.20;99.60
18101;DHT22;9177;49.156;8.142;2022-07-23T08:05:54;26.20;99.60
18101;DHT22;9177;49.156;8.142;2022-07-23T08:08:21;26.20;99.50
18101;DHT22;9177;49.156;8.142;2022-07-23T08:10:48;26.20;99.50
18101;DHT22;9177;49.156;8.142;2022-07-23T08:13:16;26.20;99.50
18101;DHT22;9177;49.156;8.142;2022-07-23T08:15:45;26.30;99.60
18101;DHT22;9177;49.156;8.142;2022-07-23T08:18:11;26.20;99.50
18101;DHT22;9177;49.156;8.142;2022-07-23T08:20:38;26.30;99.60
18101;DHT22;9177;49.156;8.142;2022-07-23T08:23:07;26.30;99.50
18101;DHT22;9177;49.156;8.142;2022-07-23T08:25:37;26.30;99.60
18101;DHT22;9177;49.156;8.142;2022-07-23T08:28:06;26.30;99.60
18101;DHT22;9177;49.156;8.142;2022-07-23T08:30:34;26.30;99.60
18101;DHT22;9177;49.156;8.142;2022-07-23T08:33:04;26.30;99.60
18101;DHT22;9177;49.156;8.142;2022-07-23T08:35:34;26.20;99.60
18101;DHT22;9177;49.156;8.142;2022-07-23T08:38:02;26.30;99.70
18101;DHT22;9177;49.156;8.142;2022-07-23T08:40:32;26.30;99.70
18101;DHT22;9177;49.156;8.142;2022-07-23T08:42:59;26.30;99.60
18101;DHT22;9177;49.156;8.142;2022-07-23T08:45:29;26.30;99.70
18101;DHT22;9177;49.156;8.142;2022-07-23T08:47:58;26.30;99.70
18101;DHT22;9177;49.156;8.142;2022-07-23T08:50:26;26.30;99.60
18101;DHT22;9177;49.156;8.142;2022-07-23T08:52:54;26.30;99.60
18101;DHT22;9177;49.156;8.142;2022-07-23T08:55:22;26.40;99.60
18101;DHT22;9177;49.156;8.142;2022-07-23T08:57:50;26.40;99.60
18101;DHT22;9177;49.156;8.142;2022-07-23T09:00:19;26.40;99.60
18101;DHT22;9177;49.156;8.142;2022-07-23T09:02:47;26.40;99.60
18101;DHT22;9177;49.156;8.142;2022-07-23T09:05:15;26.40;99.60
18101;DHT22;9177;49.156;8.142;2022-07-23T09:08:09;26.50;99.60
18101;DHT22;9177;49.156;8.142;2022-07-23T09:10:44;26.50;99.50
18101;DHT22;9177;49.156;8.142;2022-07-23T09:13:33;26.50;99.50
18101;DHT22;9177;49.156;8.142;2022-07-23T09:16:05;26.60;99.50
18101;DHT22;9177;49.156;8.142;2022-07-23T09:18:38;26.50;99.40
18101;DHT22;9177;49.156;8.142;2022-07-23T09:21:11;26.60;99.50
18101;DHT22;9177;49.156;8.142;2022-07-23T09:23:41;26.60;99.40
18101;DHT22;9177;49.156;8.142;2022-07-23T09:26:21;26.60;99.40
18101;DHT22;9177;49.156;8.142;2022-07-23T09:28:54;26.60;99.40
18101;DHT22;9177;49.156;8.142;2022-07-23T09:31:22;26.70;99.40
18101;DHT22;9177;49.156;8.142;2022-07-23T09:33:50;26.70;99.40
18101;DHT22;9177;49.156;8.142;2022-07-23T09:36:27;26.70;99.40
18101;DHT22;9177;49.156;8.142;2022-07-23T09:38:57;26.70;99.40
18101;DHT22;9177;49.156;8.142;2022-07-23T09:41:24;26.70;99.40
18101;DHT22;9177;49.156;8.142;2022-07-23T09:43:55;26.70;99.50
18101;DHT22;9177;49.156;8.142;2022-07-23T09:46:25;26.70;99.50
18101;DHT22;9177;49.156;8.142;2022-07-23T09:48:53;26.70;99.50
18101;DHT22;9177;49.156;8.142;2022-07-23T09:51:22;26.70;99.60
18101;DHT22;9177;49.156;8.142;2022-07-23T09:53:57;26.70;99.50
18101;DHT22;9177;49.156;8.142;2022-07-23T09:56:26;26.70;99.50
18101;DHT22;9177;49.156;8.142;2022-07-23T09:58:54;26.70;99.50
18101;DHT22;9177;49.156;8.142;2022-07-23T10:01:29;26.70;99.50
18101;DHT22;9177;49.156;8.142;2022-07-23T10:03:58;26.70;99.40
18101;DHT22;9177;49.156;8.142;2022-07-23T10:06:26;26.70;99.40
18101;DHT22;9177;49.156;8.142;2022-07-23T10:08:59;26.70;99.50
18101;DHT22;9177;49.156;8.142;2022-07-23T10:11:27;26.70;99.60
18101;DHT22;9177;49.156;8.142;2022-07-23T10:13:55;26.70;99.60
18101;DHT22;9177;49.156;8.142;2022-07-23T10:16:24;26.70;99.70
18101;DHT22;9177;49.156;8.142;2022-07-23T10:18:52;26.70;99.80
18101;DHT22;9177;49.156;8.142;2022-07-23T10:21:25;26.70;99.90
18101;DHT22;9177;49.156;8.142;2022-07-23T10:24:08;26.70;99.90
18101;DHT22;9177;49.156;8.142;2022-07-23T10:26:41;26.80;99.90
18101;DHT22;9177;49.156;8.142;2022-07-23T10:29:16;26.80;99.90
18101;DHT22;9177;49.156;8.142;2022-07-23T10:31:52;26.80;99.90
18101;DHT22;9177;49.156;8.142;2022-07-23T10:34:27;26.80;99.90
18101;DHT22;9177;49.156;8.142;2022-07-23T10:36:59;26.80;99.90
18101;DHT22;9177;49.156;8.142;2022-07-23T10:39:32;26.80;99.90
18101;DHT22;9177;49.156;8.142;2022-07-23T10:42:10;26.80;99.90
18101;DHT22;9177;49.156;8.142;2022-07-23T10:44:41;26.80;99.90
18101;DHT22;9177;49.156;8.142;2022-07-23T10:47:10;26.80;99.90
18101;DHT22;9177;49.156;8.142;2022-07-23T10:50:18;26.70;99.90
18101;DHT22;9177;49.156;8.142;2022-07-23T10:53:10;26.70;99.90
18101;DHT22;9177;49.156;8.142;2022-07-23T10:55:43;26.70;99.90
18101;DHT22;9177;49.156;8.142;2022-07-23T10:58:11;26.80;99.90
18101;DHT22;9177;49.156;8.142;2022-07-23T11:00:43;26.80;99.90
18101;DHT22;9177;49.156;8.142;2022-07-23T11:03:29;26.80;99.90
18101;DHT22;9177;49.156;8.142;2022-07-23T11:05:58;26.80;99.90
18101;DHT22;9177;49.156;8.142;2022-07-23T11:08:24;26.80;99.90
18101;DHT22;9177;49.156;8.142;2022-07-23T11:10:55;26.80;99.90
18101;DHT22;9177;49.156;8.142;2022-07-23T11:13:37;26.80;99.90
18101;DHT22;9177;49.156;8.142;2022-07-23T11:16:13;26.90;99.90
18101;DHT22;9177;49.156;8.142;2022-07-23T11:19:06;26.90;99.90
18101;DHT22;9177;49.156;8.142;2022-07-23T11:21:41;26.90;99.90
18101;DHT22;9177;49.156;8.142;2022-07-23T11:24:09;26.90;99.80
18101;DHT22;9177;49.156;8.142;2022-07-23T11:27:05;26.90;99.80
18101;DHT22;9177;49.156;8.142;2022-07-23T11:29:44;26.90;99.80
18101;DHT22;9177;49.156;8.142;2022-07-23T11:32:36;26.90;99.90
18101;DHT22;9177;49.156;8.142;2022-07-23T11:35:22;26.90;99.70
18101;DHT22;9177;49.156;8.142;2022-07-23T11:37:50;26.90;99.70
18101;DHT22;9177;49.156;8.142;2022-07-23T11:40:20;26.90;99.70
18101;DHT22;9177;49.156;8.142;2022-07-23T11:42:55;26.90;99.70
18101;DHT22;9177;49.156;8.142;2022-07-23T11:45:22;26.90;99.70
18101;DHT22;9177;49.156;8.142;2022-07-23T11:47:50;26.90;99.70
18101;DHT22;9177;49.156;8.142;2022-07-23T11:50:17;26.90;99.80
18101;DHT22;9177;49.156;8.142;2022-07-23T11:52:44;26.90;99.80
18101;DHT22;9177;49.156;8.142;2022-07-23T11:55:14;26.90;99.80
18101;DHT22;9177;49.156;8.142;2022-07-23T11:57:43;26.90;99.90
18101;DHT22;9177;49.156;8.142;2022-07-23T12:00:14;26.90;99.90
18101;DHT22;9177;49.156;8.142;2022-07-23T12:02:43;26.80;99.90
18101;DHT22;9177;49.156;8.142;2022-07-23T12:05:12;26.90;99.90
18101;DHT22;9177;49.156;8.142;2022-07-23T12:07:42;26.80;99.90
18101;DHT22;9177;49.156;8.142;2022-07-23T12:10:14;26.80;99.90
18101;DHT22;9177;49.156;8.142;2022-07-23T12:12:43;26.80;99.90
18101;DHT22;9177;49.156;8.142;2022-07-23T12:15:13;26.80;99.90
18101;DHT22;9177;49.156;8.142;2022-07-23T12:17:42;26.90;99.90
18101;DHT22;9177;49.156;8.142;2022-07-23T12:20:12;26.90;99.90
18101;DHT22;9177;49.156;8.142;2022-07-23T12:22:42;26.90;99.90
18101;DHT22;9177;49.156;8.142;2022-07-23T12:25:11;27.00;99.90
18101;DHT22;9177;49.156;8.142;2022-07-23T12:27:38;26.90;99.90
18101;DHT22;9177;49.156;8.142;2022-07-23T12:30:21;27.00;99.90
18101;DHT22;9177;49.156;8.142;2022-07-23T12:32:54;27.00;99.90
18101;DHT22;9177;49.156;8.142;2022-07-23T12:35:22;27.10;99.90
18101;DHT22;9177;49.156;8.142;2022-07-23T12:37:59;27.10;99.90
18101;DHT22;9177;49.156;8.142;2022-07-23T12:40:28;27.10;99.90
18101;DHT22;9177;49.156;8.142;2022-07-23T12:42:58;27.10;99.90
18101;DHT22;9177;49.156;8.142;2022-07-23T12:45:28;27.00;99.90
18101;DHT22;9177;49.156;8.142;2022-07-23T12:48:00;27.00;99.90
18101;DHT22;9177;49.156;8.142;2022-07-23T12:50:43;27.00;99.90
18101;DHT22;9177;49.156;8.142;2022-07-23T12:53:14;26.90;99.90
18101;DHT22;9177;49.156;8.142;2022-07-23T12:55:42;26.90;99.90
18101;DHT22;9177;49.156;8.142;2022-07-23T12:58:16;26.90;99.90
18101;DHT22;9177;49.156;8.142;2022-07-23T13:01:02;26.90;99.90
18101;DHT22;9177;49.156;8.142;2022-07-23T13:03:32;26.90;99.90
18101;DHT22;9177;49.156;8.142;2022-07-23T13:06:01;26.90;99.90
18101;DHT22;9177;49.156;8.142;2022-07-23T13:08:30;27.00;99.90
18101;DHT22;9177;49.156;8.142;2022-07-23T13:10:58;27.10;99.90
18101;DHT22;9177;49.156;8.142;2022-07-23T13:13:28;27.10;99.90
18101;DHT22;9177;49.156;8.142;2022-07-23T13:15:58;27.10;99.90
18101;DHT22;9177;49.156;8.142;2022-07-23T13:18:26;27.10;99.90
18101;DHT22;9177;49.156;8.142;2022-07-23T13:20:54;27.00;99.90
18101;DHT22;9177;49.156;8.142;2022-07-23T13:23:22;27.10;99.90
18101;DHT22;9177;49.156;8.142;2022-07-23T13:25:49;27.10;99.90
18101;DHT22;9177;49.156;8.142;2022-07-23T13:28:18;27.20;99.90
18101;DHT22;9177;49.156;8.142;2022-07-23T13:30:46;27.20;99.90
18101;DHT22;9177;49.156;8.142;2022-07-23T13:33:17;27.20;99.90
18101;DHT22;9177;49.156;8.142;2022-07-23T13:35:44;27.20;99.90
18101;DHT22;9177;49.156;8.142;2022-07-23T13:38:11;27.20;99.90
18101;DHT22;9177;49.156;8.142;2022-07-23T13:40:40;27.20;99.90
18101;DHT22;9177;49.156;8.142;2022-07-23T13:43:11;27.10;99.90
18101;DHT22;9177;49.156;8.142;2022-07-23T13:45:38;27.10;99.90
18101;DHT22;9177;49.156;8.142;2022-07-23T13:48:06;27.10;99.90
18101;DHT22;9177;49.156;8.142;2022-07-23T13:50:36;27.10;99.90
18101;DHT22;9177;49.156;8.142;2022-07-23T13:53:04;27.10;99.90
18101;DHT22;9177;49.156;8.142;2022-07-23T13:55:32;27.20;99.90
18101;DHT22;9177;49.156;8.142;2022-07-23T13:58:00;27.20;99.80
18101;DHT22;9177;49.156;8.142;2022-07-23T14:00:28;27.20;99.80
18101;DHT22;9177;49.156;8.142;2022-07-23T14:02:56;27.20;99.80
18101;DHT22;9177;49.156;8.142;2022-07-23T14:05:23;27.20;99.70
18101;DHT22;9177;49.156;8.142;2022-07-23T14:07:51;27.20;99.70
18101;DHT22;9177;49.156;8.142;2022-07-23T14:10:20;27.10;99.70
18101;DHT22;9177;49.156;8.142;2022-07-23T14:12:49;27.10;99.60
18101;DHT22;9177;49.156;8.142;2022-07-23T14:15:17;27.10;99.80
18101;DHT22;9177;49.156;8.142;2022-07-23T14:17:45;27.00;99.80
18101;DHT22;9177;49.156;8.142;2022-07-23T14:20:13;27.00;99.70
18101;DHT22;9177;49.156;8.142;2022-07-23T14:22:41;27.00;99.90
18101;DHT22;9177;49.156;8.142;2022-07-23T14:25:09;27.10;99.90
18101;DHT22;9177;49.156;8.142;2022-07-23T14:27:37;27.10;99.90
18101;DHT22;9177;49.156;8.142;2022-07-23T14:30:08;27.10;99.90
18101;DHT22;9177;49.156;8.142;2022-07-23T14:32:35;27.20;99.90
18101;DHT22;9177;49.156;8.142;2022-07-23T14:35:04;27.10;99.90
18101;DHT22;9177;49.156;8.142;2022-07-23T14:37:32;27.10;99.80
18101;DHT22;9177;49.156;8.142;2022-07-23T14:39:59;27.10;99.90
18101;DHT22;9177;49.156;8.142;2022-07-23T14:42:27;27.10;99.90
18101;DHT22;9177;49.156;8.142;2022-07-23T14:44:54;27.10;99.90
18101;DHT22;9177;49.156;8.142;2022-07-23T14:47:21;27.10;99.90
18101;DHT22;9177;49.156;8.142;2022-07-23T14:49:48;27.10;99.90
18101;DHT22;9177;49.156;8.142;2022-07-23T14:52:16;27.00;99.90
18101;DHT22;9177;49.156;8.142;2022-07-23T14:54:43;27.00;99.90
18101;DHT22;9177;49.156;8.142;2022-07-23T14:57:10;27.00;99.90
18101;DHT22;9177;49.156;8.142;2022-07-23T14:59:38;27.10;99.90
18101;DHT22;9177;49.156;8.142;2022-07-23T15:02:07;27.10;99.90
18101;DHT22;9177;49.156;8.142;2022-07-23T15:04:34;27.10;99.90
18101;DHT22;9177;49.156;8.142;2022-07-23T15:07:02;27.10;99.90
18101;DHT22;9177;49.156;8.142;2022-07-23T15:09:29;27.10;99.90
18101;DHT22;9177;49.156;8.142;2022-07-23T15:11:55;27.10;99.90
18101;DHT22;9177;49.156;8.142;2022-07-23T15:14:22;27.20;99.90
18101;DHT22;9177;49.156;8.142;2022-07-23T15:16:51;27.20;99.90
18101;DHT22;9177;49.156;8.142;2022-07-23T15:19:18;27.20;99.90
18101;DHT22;9177;49.156;8.142;2022-07-23T15:21:44;27.20;99.90
18101;DHT22;9177;49.156;8.142;2022-07-23T15:24:12;27.20;99.90
18101;DHT22;9177;49.156;8.142;2022-07-23T15:26:39;27.20;99.90
18101;DHT22;9177;49.156;8.142;2022-07-23T15:29:05;27.20;99.90
18101;DHT22;9177;49.156;8.142;2022-07-23T15:31:33;27.20;99.90
18101;DHT22;9177;49.156;8.142;2022-07-23T15:34:01;27.30;99.90
18101;DHT22;9177;49.156;8.142;2022-07-23T15:36:29;27.30;99.90
18101;DHT22;9177;49.156;8.142;2022-07-23T15:38:55;27.30;99.90
18101;DHT22;9177;49.156;8.142;2022-07-23T15:41:22;27.30;99.90
18101;DHT22;9177;49.156;8.142;2022-07-23T15:43:50;27.30;99.90
18101;DHT22;9177;49.156;8.142;2022-07-23T15:46:17;27.30;99.90
18101;DHT22;9177;49.156;8.142;2022-07-23T15:48:44;27.30;99.90
18101;DHT22;9177;49.156;8.142;2022-07-23T15:51:13;27.30;99.90
18101;DHT22;9177;49.156;8.142;2022-07-23T15:53:41;27.30;99.90
18101;DHT22;9177;49.156;8.142;2022-07-23T15:56:08;27.30;99.90